Decoded Metar for KLLJ (CHALLIS in ID, USA) (IATA:LLJ) | Meteo·Mobile Aviation Weather
aviador You're here:

KLLJ Decoded Metar

CHALLIS in ID, USA
Report Time2019-06-18 14:55:00
UTC Time2019-06-18 15:34:45
Flight Rules vfr VFR
Wind010° at 03 kt
W.Decomp.*RWY 34: 2.9 kt HW 0.7 kt RCW
Visibility9999 m
Phenomena:N/A
Clouds:N/A
Expected CloudBase > 3,200 ft AGL from Temp-Dew spread
CeilingNone
Temp16°C (ISA +11)
Dew Point08°C (59% RH)
AAT14.5°C
QNH1021 hPa
Density Alt6,211 ft
Elevation5,039 ft
Report Wrong Elevation
Raw Report
KLLJ 181455Z AUTO 01003KT 10SM CLR 16/08 A3014 RMK AO2 SLP151
T01560078 50000=

Extra information for KLLJ:More info

Metar Taf Metar & Taf Last 4 Metars F.Rules Stats Wind Profile Meteogram Temp Stats Airport Information Weather charts Add Link Nearby VenuesMetar ALERT Operation Metar Decoded Social comments

AIRNAV info for KLLJ